sensor_id;sensor_type;location;lat;lon;timestamp;P1;durP1;ratioP1;P2;durP2;ratioP2
16731;SDS011;8484;50.904;9.192;2022-12-18T00:00:45;20.57;;;9.20;;
16731;SDS011;8484;50.904;9.192;2022-12-18T00:03:13;39.80;;;10.07;;
16731;SDS011;8484;50.904;9.192;2022-12-18T00:05:45;29.57;;;9.03;;
16731;SDS011;8484;50.904;9.192;2022-12-18T00:08:13;28.20;;;9.80;;
16731;SDS011;8484;50.904;9.192;2022-12-18T00:10:40;18.43;;;10.27;;
16731;SDS011;8484;50.904;9.192;2022-12-18T00:13:07;40.53;;;10.67;;
16731;SDS011;8484;50.904;9.192;2022-12-18T00:15:35;42.43;;;9.27;;
16731;SDS011;8484;50.904;9.192;2022-12-18T00:18:02;39.67;;;10.53;;
16731;SDS011;8484;50.904;9.192;2022-12-18T00:20:29;60.57;;;11.13;;
16731;SDS011;8484;50.904;9.192;2022-12-18T00:22:56;83.37;;;11.23;;
16731;SDS011;8484;50.904;9.192;2022-12-18T00:25:24;33.43;;;10.47;;
16731;SDS011;8484;50.904;9.192;2022-12-18T00:27:52;30.30;;;10.73;;
16731;SDS011;8484;50.904;9.192;2022-12-18T00:30:19;35.93;;;10.63;;
16731;SDS011;8484;50.904;9.192;2022-12-18T00:32:47;22.87;;;9.73;;
16731;SDS011;8484;50.904;9.192;2022-12-18T00:35:14;22.07;;;9.40;;
16731;SDS011;8484;50.904;9.192;2022-12-18T00:37:41;26.30;;;10.67;;
16731;SDS011;8484;50.904;9.192;2022-12-18T00:40:08;45.37;;;9.60;;
16731;SDS011;8484;50.904;9.192;2022-12-18T00:42:36;27.27;;;9.40;;
16731;SDS011;8484;50.904;9.192;2022-12-18T00:45:21;22.13;;;8.87;;
16731;SDS011;8484;50.904;9.192;2022-12-18T00:47:49;11.43;;;8.73;;
16731;SDS011;8484;50.904;9.192;2022-12-18T00:50:16;12.50;;;8.27;;
16731;SDS011;8484;50.904;9.192;2022-12-18T00:52:43;15.97;;;9.53;;
16731;SDS011;8484;50.904;9.192;2022-12-18T00:55:10;16.23;;;9.03;;
16731;SDS011;8484;50.904;9.192;2022-12-18T00:57:38;14.17;;;9.57;;
16731;SDS011;8484;50.904;9.192;2022-12-18T01:00:06;16.10;;;9.70;;
16731;SDS011;8484;50.904;9.192;2022-12-18T15:42:28;10.57;;;8.17;;
16731;SDS011;8484;50.904;9.192;2022-12-18T15:45:13;14.67;;;9.43;;
16731;SDS011;8484;50.904;9.192;2022-12-18T15:47:40;12.90;;;8.93;;
16731;SDS011;8484;50.904;9.192;2022-12-18T15:50:08;14.80;;;9.23;;
16731;SDS011;8484;50.904;9.192;2022-12-18T15:52:38;15.23;;;9.67;;
16731;SDS011;8484;50.904;9.192;2022-12-18T15:55:09;16.20;;;9.90;;
16731;SDS011;8484;50.904;9.192;2022-12-18T15:57:57;13.10;;;9.80;;
16731;SDS011;8484;50.904;9.192;2022-12-18T16:00:23;15.67;;;9.87;;
16731;SDS011;8484;50.904;9.192;2022-12-18T16:02:51;14.67;;;9.17;;
16731;SDS011;8484;50.904;9.192;2022-12-18T16:05:19;10.77;;;7.57;;
16731;SDS011;8484;50.904;9.192;2022-12-18T16:07:47;11.70;;;8.03;;
16731;SDS011;8484;50.904;9.192;2022-12-18T16:10:14;17.17;;;10.40;;
16731;SDS011;8484;50.904;9.192;2022-12-18T16:12:42;16.40;;;10.60;;
16731;SDS011;8484;50.904;9.192;2022-12-18T16:15:12;14.70;;;10.10;;
16731;SDS011;8484;50.904;9.192;2022-12-18T16:17:43;17.13;;;11.23;;
16731;SDS011;8484;50.904;9.192;2022-12-18T16:20:11;15.83;;;9.57;;
16731;SDS011;8484;50.904;9.192;2022-12-18T16:22:40;15.93;;;10.33;;
16731;SDS011;8484;50.904;9.192;2022-12-18T16:25:08;18.10;;;11.10;;
16731;SDS011;8484;50.904;9.192;2022-12-18T16:27:42;15.17;;;10.17;;
16731;SDS011;8484;50.904;9.192;2022-12-18T16:30:13;14.67;;;10.33;;
16731;SDS011;8484;50.904;9.192;2022-12-18T16:32:41;18.27;;;11.27;;
16731;SDS011;8484;50.904;9.192;2022-12-18T16:35:09;14.40;;;9.73;;
16731;SDS011;8484;50.904;9.192;2022-12-18T16:37:37;16.00;;;9.43;;
16731;SDS011;8484;50.904;9.192;2022-12-18T16:40:05;13.83;;;9.47;;
16731;SDS011;8484;50.904;9.192;2022-12-18T16:45:01;13.60;;;9.83;;
16731;SDS011;8484;50.904;9.192;2022-12-18T16:47:30;14.93;;;10.17;;
16731;SDS011;8484;50.904;9.192;2022-12-18T16:49:57;18.17;;;11.47;;
16731;SDS011;8484;50.904;9.192;2022-12-18T16:52:24;13.87;;;9.03;;
16731;SDS011;8484;50.904;9.192;2022-12-18T16:54:51;18.23;;;10.83;;
16731;SDS011;8484;50.904;9.192;2022-12-18T16:57:19;13.63;;;10.33;;
16731;SDS011;8484;50.904;9.192;2022-12-18T16:59:47;15.00;;;9.90;;
16731;SDS011;8484;50.904;9.192;2022-12-18T17:02:15;10.40;;;6.73;;
16731;SDS011;8484;50.904;9.192;2022-12-18T17:04:44;15.90;;;9.53;;
16731;SDS011;8484;50.904;9.192;2022-12-18T17:07:12;14.70;;;9.37;;
16731;SDS011;8484;50.904;9.192;2022-12-18T17:09:39;16.70;;;9.13;;
16731;SDS011;8484;50.904;9.192;2022-12-18T17:12:06;12.40;;;8.30;;
16731;SDS011;8484;50.904;9.192;2022-12-18T17:14:34;15.97;;;10.63;;
16731;SDS011;8484;50.904;9.192;2022-12-18T17:17:02;10.57;;;8.10;;
16731;SDS011;8484;50.904;9.192;2022-12-18T17:19:29;15.40;;;10.60;;
16731;SDS011;8484;50.904;9.192;2022-12-18T17:21:57;11.23;;;7.73;;
16731;SDS011;8484;50.904;9.192;2022-12-18T17:24:24;14.70;;;9.47;;
16731;SDS011;8484;50.904;9.192;2022-12-18T17:26:51;18.63;;;10.93;;
16731;SDS011;8484;50.904;9.192;2022-12-18T17:29:19;14.23;;;9.47;;
16731;SDS011;8484;50.904;9.192;2022-12-18T17:31:46;15.67;;;9.80;;
16731;SDS011;8484;50.904;9.192;2022-12-18T17:34:13;20.27;;;11.87;;
16731;SDS011;8484;50.904;9.192;2022-12-18T17:36:40;16.53;;;10.53;;
16731;SDS011;8484;50.904;9.192;2022-12-18T17:39:14;17.20;;;11.33;;
16731;SDS011;8484;50.904;9.192;2022-12-18T17:41:44;17.33;;;11.27;;
16731;SDS011;8484;50.904;9.192;2022-12-18T17:44:11;16.17;;;10.73;;
16731;SDS011;8484;50.904;9.192;2022-12-18T17:46:38;17.03;;;10.97;;
16731;SDS011;8484;50.904;9.192;2022-12-18T17:49:05;19.70;;;12.67;;
16731;SDS011;8484;50.904;9.192;2022-12-18T17:51:32;19.80;;;11.97;;
16731;SDS011;8484;50.904;9.192;2022-12-18T17:53:59;15.90;;;11.73;;
16731;SDS011;8484;50.904;9.192;2022-12-18T17:56:27;16.50;;;12.47;;
16731;SDS011;8484;50.904;9.192;2022-12-18T17:58:54;16.17;;;12.00;;
16731;SDS011;8484;50.904;9.192;2022-12-18T18:01:23;17.77;;;11.87;;
16731;SDS011;8484;50.904;9.192;2022-12-18T18:03:50;16.73;;;12.13;;
16731;SDS011;8484;50.904;9.192;2022-12-18T18:06:20;18.50;;;12.27;;
16731;SDS011;8484;50.904;9.192;2022-12-18T18:08:47;17.50;;;12.43;;
16731;SDS011;8484;50.904;9.192;2022-12-18T18:11:15;14.23;;;11.10;;
16731;SDS011;8484;50.904;9.192;2022-12-18T18:14:03;15.87;;;12.03;;
16731;SDS011;8484;50.904;9.192;2022-12-18T18:16:34;15.97;;;11.07;;
16731;SDS011;8484;50.904;9.192;2022-12-18T18:19:06;12.40;;;9.37;;
16731;SDS011;8484;50.904;9.192;2022-12-18T18:21:36;16.00;;;12.27;;
16731;SDS011;8484;50.904;9.192;2022-12-18T18:24:05;14.30;;;11.23;;
16731;SDS011;8484;50.904;9.192;2022-12-18T18:26:33;17.17;;;12.03;;
16731;SDS011;8484;50.904;9.192;2022-12-18T18:29:01;18.50;;;12.73;;
16731;SDS011;8484;50.904;9.192;2022-12-18T18:31:32;20.10;;;12.93;;
16731;SDS011;8484;50.904;9.192;2022-12-18T18:34:01;22.00;;;13.90;;
16731;SDS011;8484;50.904;9.192;2022-12-18T18:36:28;18.07;;;11.90;;
16731;SDS011;8484;50.904;9.192;2022-12-18T18:38:57;17.23;;;12.60;;
16731;SDS011;8484;50.904;9.192;2022-12-18T18:41:25;18.50;;;12.87;;
16731;SDS011;8484;50.904;9.192;2022-12-18T18:43:54;18.30;;;11.93;;
16731;SDS011;8484;50.904;9.192;2022-12-18T18:46:24;20.60;;;13.87;;
16731;SDS011;8484;50.904;9.192;2022-12-18T18:48:51;17.57;;;11.93;;
16731;SDS011;8484;50.904;9.192;2022-12-18T18:51:18;17.77;;;12.00;;
16731;SDS011;8484;50.904;9.192;2022-12-18T18:53:46;18.53;;;12.47;;
16731;SDS011;8484;50.904;9.192;2022-12-18T18:56:16;21.43;;;13.83;;
16731;SDS011;8484;50.904;9.192;2022-12-18T18:58:44;15.80;;;11.53;;
16731;SDS011;8484;50.904;9.192;2022-12-18T19:01:12;18.73;;;12.27;;
16731;SDS011;8484;50.904;9.192;2022-12-18T19:03:42;18.23;;;11.53;;
16731;SDS011;8484;50.904;9.192;2022-12-18T19:06:10;16.80;;;11.10;;
16731;SDS011;8484;50.904;9.192;2022-12-18T19:08:40;19.23;;;12.53;;
16731;SDS011;8484;50.904;9.192;2022-12-18T19:11:08;18.80;;;12.77;;
16731;SDS011;8484;50.904;9.192;2022-12-18T19:13:55;17.70;;;12.30;;
16731;SDS011;8484;50.904;9.192;2022-12-18T19:16:23;18.53;;;12.50;;
16731;SDS011;8484;50.904;9.192;2022-12-18T19:18:52;16.07;;;11.93;;
16731;SDS011;8484;50.904;9.192;2022-12-18T19:21:19;17.80;;;12.00;;
16731;SDS011;8484;50.904;9.192;2022-12-18T19:23:47;16.67;;;11.00;;
16731;SDS011;8484;50.904;9.192;2022-12-18T19:26:14;18.43;;;12.63;;
16731;SDS011;8484;50.904;9.192;2022-12-18T19:28:42;18.97;;;11.93;;
16731;SDS011;8484;50.904;9.192;2022-12-18T19:31:10;17.23;;;11.33;;
16731;SDS011;8484;50.904;9.192;2022-12-18T19:33:40;18.13;;;12.33;;
16731;SDS011;8484;50.904;9.192;2022-12-18T19:36:10;20.53;;;12.97;;
16731;SDS011;8484;50.904;9.192;2022-12-18T19:38:38;18.87;;;12.70;;
16731;SDS011;8484;50.904;9.192;2022-12-18T19:41:05;19.63;;;13.27;;
16731;SDS011;8484;50.904;9.192;2022-12-18T19:43:33;19.20;;;12.90;;
16731;SDS011;8484;50.904;9.192;2022-12-18T19:46:02;20.00;;;12.57;;
16731;SDS011;8484;50.904;9.192;2022-12-18T19:48:29;19.87;;;13.13;;
16731;SDS011;8484;50.904;9.192;2022-12-18T19:50:57;20.57;;;15.03;;
16731;SDS011;8484;50.904;9.192;2022-12-18T19:53:25;18.90;;;14.00;;
16731;SDS011;8484;50.904;9.192;2022-12-18T19:55:52;20.20;;;13.70;;
16731;SDS011;8484;50.904;9.192;2022-12-18T19:58:19;23.20;;;14.77;;
16731;SDS011;8484;50.904;9.192;2022-12-18T20:00:46;21.87;;;14.70;;
16731;SDS011;8484;50.904;9.192;2022-12-18T20:03:13;20.07;;;13.87;;
16731;SDS011;8484;50.904;9.192;2022-12-18T20:05:40;18.80;;;12.60;;
16731;SDS011;8484;50.904;9.192;2022-12-18T20:08:07;17.13;;;12.47;;
16731;SDS011;8484;50.904;9.192;2022-12-18T20:10:35;18.30;;;12.40;;
16731;SDS011;8484;50.904;9.192;2022-12-18T20:13:02;19.63;;;13.00;;
16731;SDS011;8484;50.904;9.192;2022-12-18T20:15:28;17.40;;;12.93;;
16731;SDS011;8484;50.904;9.192;2022-12-18T20:17:55;16.07;;;12.80;;
16731;SDS011;8484;50.904;9.192;2022-12-18T20:20:22;19.77;;;13.53;;
16731;SDS011;8484;50.904;9.192;2022-12-18T20:22:49;18.83;;;13.20;;
16731;SDS011;8484;50.904;9.192;2022-12-18T20:25:18;17.40;;;13.07;;
16731;SDS011;8484;50.904;9.192;2022-12-18T20:27:47;16.10;;;12.23;;
16731;SDS011;8484;50.904;9.192;2022-12-18T20:30:13;15.63;;;12.47;;
16731;SDS011;8484;50.904;9.192;2022-12-18T20:32:40;18.10;;;12.50;;
16731;SDS011;8484;50.904;9.192;2022-12-18T20:35:07;19.00;;;12.30;;
16731;SDS011;8484;50.904;9.192;2022-12-18T20:37:34;26.97;;;17.23;;
16731;SDS011;8484;50.904;9.192;2022-12-18T20:40:01;44.93;;;24.90;;
16731;SDS011;8484;50.904;9.192;2022-12-18T20:42:29;21.90;;;14.47;;
16731;SDS011;8484;50.904;9.192;2022-12-18T20:44:57;27.77;;;17.83;;
16731;SDS011;8484;50.904;9.192;2022-12-18T20:47:24;19.87;;;13.00;;
16731;SDS011;8484;50.904;9.192;2022-12-18T20:49:51;20.83;;;15.07;;
16731;SDS011;8484;50.904;9.192;2022-12-18T20:52:17;21.90;;;15.23;;
16731;SDS011;8484;50.904;9.192;2022-12-18T20:54:44;18.80;;;13.43;;
16731;SDS011;8484;50.904;9.192;2022-12-18T20:57:11;22.17;;;14.27;;
16731;SDS011;8484;50.904;9.192;2022-12-18T20:59:38;18.97;;;12.97;;
16731;SDS011;8484;50.904;9.192;2022-12-18T21:02:08;19.90;;;13.33;;
16731;SDS011;8484;50.904;9.192;2022-12-18T21:04:37;20.97;;;13.57;;
16731;SDS011;8484;50.904;9.192;2022-12-18T21:07:04;17.77;;;12.83;;
16731;SDS011;8484;50.904;9.192;2022-12-18T21:09:32;17.93;;;12.17;;
16731;SDS011;8484;50.904;9.192;2022-12-18T21:11:59;21.30;;;13.40;;
16731;SDS011;8484;50.904;9.192;2022-12-18T21:14:43;20.87;;;12.90;;
16731;SDS011;8484;50.904;9.192;2022-12-18T21:17:11;19.17;;;12.90;;
16731;SDS011;8484;50.904;9.192;2022-12-18T21:19:38;17.90;;;11.57;;
16731;SDS011;8484;50.904;9.192;2022-12-18T21:22:05;18.73;;;12.03;;
16731;SDS011;8484;50.904;9.192;2022-12-18T21:24:32;20.93;;;12.97;;
16731;SDS011;8484;50.904;9.192;2022-12-18T21:27:01;18.43;;;12.30;;
16731;SDS011;8484;50.904;9.192;2022-12-18T21:29:28;15.10;;;10.10;;
16731;SDS011;8484;50.904;9.192;2022-12-18T21:31:55;17.10;;;11.70;;
16731;SDS011;8484;50.904;9.192;2022-12-18T21:34:24;18.47;;;12.80;;
16731;SDS011;8484;50.904;9.192;2022-12-18T21:36:52;19.70;;;13.23;;
16731;SDS011;8484;50.904;9.192;2022-12-18T21:39:20;20.77;;;12.80;;
16731;SDS011;8484;50.904;9.192;2022-12-18T21:41:47;16.80;;;11.50;;
16731;SDS011;8484;50.904;9.192;2022-12-18T21:44:32;18.57;;;11.50;;
16731;SDS011;8484;50.904;9.192;2022-12-18T21:46:59;20.40;;;12.60;;
16731;SDS011;8484;50.904;9.192;2022-12-18T21:49:27;16.67;;;11.50;;
16731;SDS011;8484;50.904;9.192;2022-12-18T21:51:55;19.23;;;13.40;;
16731;SDS011;8484;50.904;9.192;2022-12-18T21:54:23;19.33;;;12.23;;
16731;SDS011;8484;50.904;9.192;2022-12-18T21:56:51;17.77;;;12.60;;
16731;SDS011;8484;50.904;9.192;2022-12-18T21:59:20;17.13;;;11.77;;
16731;SDS011;8484;50.904;9.192;2022-12-18T22:01:49;16.10;;;11.40;;
16731;SDS011;8484;50.904;9.192;2022-12-18T22:04:17;21.07;;;13.43;;
16731;SDS011;8484;50.904;9.192;2022-12-18T22:06:46;22.30;;;14.50;;
16731;SDS011;8484;50.904;9.192;2022-12-18T22:09:14;19.10;;;13.30;;
16731;SDS011;8484;50.904;9.192;2022-12-18T22:11:43;19.17;;;12.40;;
16731;SDS011;8484;50.904;9.192;2022-12-18T22:14:10;21.43;;;12.77;;
16731;SDS011;8484;50.904;9.192;2022-12-18T22:16:39;17.33;;;11.73;;
16731;SDS011;8484;50.904;9.192;2022-12-18T22:19:06;21.03;;;14.43;;
16731;SDS011;8484;50.904;9.192;2022-12-18T22:21:36;20.20;;;13.47;;
16731;SDS011;8484;50.904;9.192;2022-12-18T22:24:05;21.40;;;13.30;;
16731;SDS011;8484;50.904;9.192;2022-12-18T22:26:34;17.23;;;12.00;;
16731;SDS011;8484;50.904;9.192;2022-12-18T22:29:02;19.30;;;12.57;;
16731;SDS011;8484;50.904;9.192;2022-12-18T22:31:47;18.03;;;12.50;;
16731;SDS011;8484;50.904;9.192;2022-12-18T22:34:15;19.07;;;13.30;;
16731;SDS011;8484;50.904;9.192;2022-12-18T22:36:43;18.00;;;12.07;;
16731;SDS011;8484;50.904;9.192;2022-12-18T22:39:14;16.10;;;11.17;;
16731;SDS011;8484;50.904;9.192;2022-12-18T22:41:42;18.13;;;11.93;;
16731;SDS011;8484;50.904;9.192;2022-12-18T22:44:09;18.90;;;12.13;;
16731;SDS011;8484;50.904;9.192;2022-12-18T22:46:36;16.00;;;11.80;;
16731;SDS011;8484;50.904;9.192;2022-12-18T22:49:05;19.87;;;12.90;;
16731;SDS011;8484;50.904;9.192;2022-12-18T22:51:33;20.40;;;13.03;;
16731;SDS011;8484;50.904;9.192;2022-12-18T22:53:59;19.00;;;13.37;;
16731;SDS011;8484;50.904;9.192;2022-12-18T22:56:28;18.20;;;12.60;;
16731;SDS011;8484;50.904;9.192;2022-12-18T22:58:55;18.27;;;12.97;;
16731;SDS011;8484;50.904;9.192;2022-12-18T23:01:23;18.47;;;12.93;;
16731;SDS011;8484;50.904;9.192;2022-12-18T23:03:52;20.40;;;12.70;;
16731;SDS011;8484;50.904;9.192;2022-12-18T23:06:21;17.93;;;11.90;;
16731;SDS011;8484;50.904;9.192;2022-12-18T23:08:49;17.67;;;12.83;;
16731;SDS011;8484;50.904;9.192;2022-12-18T23:11:16;16.93;;;12.67;;
16731;SDS011;8484;50.904;9.192;2022-12-18T23:13:45;18.03;;;12.53;;
16731;SDS011;8484;50.904;9.192;2022-12-18T23:16:14;20.43;;;13.00;;
16731;SDS011;8484;50.904;9.192;2022-12-18T23:18:43;17.50;;;12.67;;
16731;SDS011;8484;50.904;9.192;2022-12-18T23:21:10;18.90;;;12.13;;
16731;SDS011;8484;50.904;9.192;2022-12-18T23:23:38;17.63;;;12.23;;
16731;SDS011;8484;50.904;9.192;2022-12-18T23:26:06;14.73;;;11.60;;
16731;SDS011;8484;50.904;9.192;2022-12-18T23:28:35;18.53;;;12.67;;
16731;SDS011;8484;50.904;9.192;2022-12-18T23:31:05;18.13;;;11.30;;
16731;SDS011;8484;50.904;9.192;2022-12-18T23:33:35;20.83;;;13.20;;
16731;SDS011;8484;50.904;9.192;2022-12-18T23:36:02;19.40;;;12.17;;
16731;SDS011;8484;50.904;9.192;2022-12-18T23:38:30;17.83;;;12.37;;
16731;SDS011;8484;50.904;9.192;2022-12-18T23:40:58;20.03;;;12.63;;
16731;SDS011;8484;50.904;9.192;2022-12-18T23:43:26;19.23;;;12.73;;
16731;SDS011;8484;50.904;9.192;2022-12-18T23:45:53;19.27;;;12.57;;
16731;SDS011;8484;50.904;9.192;2022-12-18T23:48:21;19.10;;;13.50;;
16731;SDS011;8484;50.904;9.192;2022-12-18T23:50:48;18.90;;;13.10;;
16731;SDS011;8484;50.904;9.192;2022-12-18T23:53:15;20.87;;;14.00;;
16731;SDS011;8484;50.904;9.192;2022-12-18T23:55:43;20.40;;;13.20;;
16731;SDS011;8484;50.904;9.192;2022-12-18T23:58:14;20.20;;;12.67;;
